createdAt,value
2019-04-01T00:01:30.382Z,7.78
2019-04-01T00:05:37.068Z,7.85
2019-04-01T00:09:43.791Z,7.73
2019-04-01T00:13:50.427Z,7.78
2019-04-01T00:17:58.283Z,7.75
2019-04-01T00:22:04.994Z,7.66
2019-04-01T00:26:11.711Z,7.61
2019-04-01T00:30:18.565Z,7.61
2019-04-01T00:34:25.271Z,7.55
2019-04-01T00:38:32.013Z,7.48
2019-04-01T00:42:46.688Z,7.41
2019-04-01T00:46:54.455Z,7.47
2019-04-01T00:51:01.176Z,7.41
2019-04-01T00:55:08.022Z,7.43
2019-04-01T00:59:14.673Z,7.33
2019-04-01T01:03:21.309Z,7.34
2019-04-01T01:07:28.012Z,7.25
2019-04-01T01:11:34.826Z,7.32
2019-04-01T01:15:41.634Z,7.32
2019-04-01T01:19:48.298Z,7.32
2019-04-01T01:23:55.054Z,7.29
2019-04-01T01:28:02.914Z,7.19
2019-04-01T01:32:09.665Z,7.17
2019-04-01T01:36:16.427Z,7.24
2019-04-01T01:40:23.207Z,7.20
2019-04-01T01:44:30.177Z,7.13
2019-04-01T01:48:37.004Z,7.06
2019-04-01T01:52:43.851Z,7.00
2019-04-01T01:56:50.651Z,6.94
2019-04-01T02:00:58.496Z,6.92
2019-04-01T02:05:05.686Z,6.83
2019-04-01T02:09:13.497Z,6.75
2019-04-01T02:13:20.359Z,6.70
2019-04-01T02:17:26.978Z,6.59
2019-04-01T02:21:33.715Z,6.61
2019-04-01T02:25:40.391Z,6.55
2019-04-01T02:29:47.175Z,6.35
2019-04-01T02:33:53.975Z,6.36
2019-04-01T02:38:00.693Z,6.26
2019-04-01T02:42:07.574Z,6.16
2019-04-01T02:46:14.381Z,6.07
2019-04-01T02:50:21.122Z,6.16
2019-04-01T02:54:27.855Z,6.05
2019-04-01T02:58:34.656Z,6.02
2019-04-01T03:02:41.392Z,6.02
2019-04-01T03:06:48.132Z,6.00
2019-04-01T03:10:54.871Z,6.00
2019-04-01T03:15:01.551Z,5.99
2019-04-01T03:19:08.310Z,5.95
2019-04-01T03:23:15.040Z,5.98
2019-04-01T03:27:21.687Z,5.94
2019-04-01T03:31:28.420Z,5.95
2019-04-01T03:35:35.228Z,5.88
2019-04-01T03:39:41.958Z,5.81
2019-04-01T03:43:48.741Z,5.88
2019-04-01T03:47:55.424Z,5.85
2019-04-01T03:52:02.058Z,5.79
2019-04-01T03:56:08.896Z,5.81
2019-04-01T04:00:16.015Z,5.74
2019-04-01T04:04:22.761Z,5.70
2019-04-01T04:08:29.427Z,5.61
2019-04-01T04:12:36.192Z,5.62
2019-04-01T04:16:43.110Z,5.54
2019-04-01T04:20:50.049Z,5.52
2019-04-01T04:24:56.982Z,5.40
2019-04-01T04:29:03.848Z,5.41
2019-04-01T04:33:12.655Z,5.28
2019-04-01T04:37:19.474Z,5.33
2019-04-01T04:41:27.896Z,5.24
2019-04-01T04:45:34.883Z,5.25
2019-04-01T04:49:41.877Z,5.18
2019-04-01T04:53:48.659Z,5.17
2019-04-01T04:57:55.570Z,5.12
2019-04-01T05:02:02.730Z,5.07
2019-04-01T05:06:09.736Z,5.03
2019-04-01T05:10:16.715Z,5.01
2019-04-01T05:14:23.495Z,5.01
2019-04-01T05:18:30.303Z,4.90
2019-04-01T05:22:38.462Z,4.98
2019-04-01T05:26:47.974Z,4.92
2019-04-01T05:30:58.749Z,4.99
2019-04-01T05:35:07.387Z,4.90
2019-04-01T05:39:14.124Z,4.97
2019-04-01T05:43:21.054Z,5.00
2019-04-01T05:47:43.592Z,4.97
2019-04-01T05:51:50.717Z,4.99
2019-04-01T05:55:58.268Z,5.12
2019-04-01T06:00:05.960Z,5.17
2019-04-01T06:04:13.028Z,5.23
2019-04-01T06:08:19.758Z,5.27
2019-04-01T06:12:26.474Z,5.35
2019-04-01T06:16:33.537Z,5.49
2019-04-01T06:20:40.319Z,5.60
2019-04-01T06:24:47.013Z,5.70
2019-04-01T06:28:53.913Z,5.72
2019-04-01T06:33:00.882Z,5.74
2019-04-01T06:37:08.147Z,5.93
2019-04-01T06:41:15.056Z,6.00
2019-04-01T06:45:35.126Z,6.16
2019-04-01T06:49:41.917Z,6.29
2019-04-01T06:53:48.701Z,6.35
2019-04-01T06:57:55.941Z,6.52
2019-04-01T07:02:02.745Z,6.67
2019-04-01T07:06:09.469Z,6.79
2019-04-01T07:10:16.266Z,6.91
2019-04-01T07:14:22.963Z,7.03
2019-04-01T07:18:29.870Z,7.15
2019-04-01T07:22:36.590Z,7.54
2019-04-01T07:26:43.250Z,7.67
2019-04-01T07:30:49.951Z,7.84
2019-04-01T07:34:56.761Z,8.07
2019-04-01T07:39:05.641Z,8.20
2019-04-01T07:43:14.982Z,8.37
2019-04-01T07:47:20.994Z,8.57
2019-04-01T07:51:27.849Z,8.68
2019-04-01T07:55:34.567Z,8.69
2019-04-01T07:59:41.794Z,9.19
2019-04-01T08:03:48.533Z,9.24
2019-04-01T08:07:55.544Z,9.59
2019-04-01T08:12:02.347Z,9.47
2019-04-01T08:16:09.244Z,9.59
2019-04-01T08:20:16.228Z,9.63
2019-04-01T08:24:22.894Z,10.04
2019-04-01T08:28:29.621Z,10.00
2019-04-01T08:32:36.650Z,10.68
2019-04-01T08:36:43.425Z,10.76
2019-04-01T08:40:50.314Z,11.41
2019-04-01T08:44:57.557Z,11.60
2019-04-01T08:49:07.831Z,12.04
2019-04-01T08:53:13.148Z,12.13
2019-04-01T08:57:20.564Z,12.77
2019-04-01T09:01:35.060Z,13.30
2019-04-01T09:05:35.953Z,13.98
2019-04-01T09:09:44.641Z,13.95
2019-04-01T09:13:52.709Z,13.70
2019-04-01T09:17:59.750Z,14.39
2019-04-01T09:22:06.496Z,14.54
2019-04-01T09:26:13.960Z,14.44
2019-04-01T09:30:21.233Z,14.62
2019-04-01T09:34:28.184Z,14.93
2019-04-01T09:38:35.178Z,15.33
2019-04-01T09:42:42.479Z,15.31
2019-04-01T09:46:49.364Z,15.28
2019-04-01T09:50:56.097Z,15.52
2019-04-01T09:55:06.042Z,15.65
2019-04-01T09:59:11.779Z,15.79
2019-04-01T10:03:18.558Z,15.85
2019-04-01T10:07:25.480Z,15.78
2019-04-01T10:11:32.616Z,15.90
2019-04-01T10:15:39.408Z,15.71
2019-04-01T10:19:46.232Z,15.24
2019-04-01T10:23:53.117Z,15.89
2019-04-01T10:28:00.318Z,15.99
2019-04-01T10:32:07.019Z,16.11
2019-04-01T10:36:13.796Z,16.27
2019-04-01T10:40:20.689Z,16.25
2019-04-01T10:44:27.474Z,16.75
2019-04-01T10:48:34.278Z,17.12
2019-04-01T10:52:43.904Z,16.28
2019-04-01T10:56:49.620Z,17.51
2019-04-01T11:00:56.390Z,16.66
2019-04-01T11:05:03.320Z,17.49
2019-04-01T11:09:11.257Z,18.02
2019-04-01T11:13:18.122Z,18.29
2019-04-01T11:17:24.918Z,18.43
2019-04-01T11:21:31.709Z,19.51
2019-04-01T11:25:41.198Z,18.71
2019-04-01T11:29:48.222Z,18.72
2019-04-01T11:33:54.912Z,18.67
2019-04-01T11:38:01.679Z,19.71
2019-04-01T11:42:08.518Z,19.09
2019-04-01T11:46:15.328Z,19.30
2019-04-01T11:50:22.159Z,19.67
2019-04-01T11:54:28.972Z,19.46
2019-04-01T11:58:35.862Z,19.17
2019-04-01T12:02:43.059Z,19.16
2019-04-01T12:06:49.897Z,19.88
2019-04-01T12:10:56.681Z,19.72
2019-04-01T12:15:03.975Z,19.96
2019-04-01T12:19:10.827Z,20.63
2019-04-01T12:23:17.613Z,20.67
2019-04-01T12:27:24.368Z,19.68
2019-04-01T12:31:31.229Z,20.10
2019-04-01T12:35:38.293Z,20.78
2019-04-01T12:39:45.214Z,21.28
2019-04-01T12:43:52.098Z,19.84
2019-04-01T12:47:58.881Z,20.80
2019-04-01T12:52:08.682Z,20.60
2019-04-01T12:56:15.708Z,20.90
2019-04-01T13:00:29.085Z,21.64
2019-04-01T13:04:36.084Z,20.11
2019-04-01T13:08:42.558Z,21.15
2019-04-01T13:12:55.133Z,20.31
2019-04-01T13:17:01.821Z,20.73
2019-04-01T13:21:08.676Z,21.09
2019-04-01T13:25:16.776Z,21.54
2019-04-01T13:29:24.176Z,21.89
2019-04-01T13:33:30.977Z,21.78
2019-04-01T13:37:37.708Z,22.28
2019-04-01T13:41:45.496Z,21.79
2019-04-01T13:45:53.031Z,21.56
2019-04-01T13:50:01.028Z,20.78
2019-04-01T13:54:11.279Z,20.56
2019-04-01T13:58:19.512Z,21.47
2019-04-01T14:02:30.932Z,21.63
2019-04-01T14:06:35.901Z,21.19
2019-04-01T14:10:42.654Z,21.24
2019-04-01T14:14:49.465Z,21.80
2019-04-01T14:18:56.949Z,21.33
2019-04-01T14:23:05.217Z,21.18
2019-04-01T14:27:12.720Z,21.64
2019-04-01T14:31:19.571Z,21.10
2019-04-01T14:35:26.871Z,20.92
2019-04-01T14:39:34.927Z,20.64
2019-04-01T14:43:41.761Z,20.28
2019-04-01T14:47:56.987Z,20.51
2019-04-01T14:51:57.138Z,20.20
2019-04-01T14:56:04.845Z,20.50
2019-04-01T15:00:15.929Z,20.42
2019-04-01T15:04:22.703Z,20.04
2019-04-01T15:08:29.725Z,19.43
2019-04-01T15:12:36.393Z,19.60
2019-04-01T15:16:43.121Z,19.14
2019-04-01T15:20:51.823Z,19.14
2019-04-01T15:24:59.097Z,18.72
2019-04-01T15:29:06.289Z,19.06
2019-04-01T15:33:12.958Z,19.03
2019-04-01T15:37:23.237Z,18.73
2019-04-01T15:41:31.816Z,18.68
2019-04-01T15:45:38.623Z,18.23
2019-04-01T15:49:45.327Z,18.43
2019-04-01T15:53:52.049Z,18.03
2019-04-01T15:57:59.309Z,18.05
2019-04-01T16:02:06.099Z,17.93
2019-04-01T16:06:12.851Z,18.07
2019-04-01T16:10:20.992Z,17.79
2019-04-01T16:14:28.143Z,18.07
2019-04-01T16:18:35.218Z,17.70
2019-04-01T16:22:43.683Z,17.56
2019-04-01T16:26:51.105Z,17.45
2019-04-01T16:31:00.394Z,17.47
2019-04-01T16:35:08.494Z,17.36
2019-04-01T16:39:20.492Z,17.18
2019-04-01T16:43:30.863Z,17.32
2019-04-01T16:47:37.554Z,17.21
2019-04-01T16:51:44.409Z,17.19
2019-04-01T16:55:51.484Z,17.13
2019-04-01T17:00:00.312Z,16.96
2019-04-01T17:04:07.068Z,16.93
2019-04-01T17:08:13.926Z,16.79
2019-04-01T17:12:20.679Z,16.70
2019-04-01T17:16:27.376Z,16.60
2019-04-01T17:20:34.168Z,16.50
2019-04-01T17:24:41.076Z,16.39
2019-04-01T17:28:47.801Z,16.33
2019-04-01T17:32:54.611Z,16.31
2019-04-01T17:37:01.434Z,16.21
2019-04-01T17:41:08.447Z,16.06
2019-04-01T17:45:33.238Z,15.89
2019-04-01T17:49:40.020Z,15.77
2019-04-01T17:53:46.890Z,15.69
2019-04-01T17:57:54.687Z,15.55
2019-04-01T18:02:01.391Z,15.50
2019-04-01T18:06:08.151Z,15.33
2019-04-01T18:10:16.133Z,15.31
2019-04-01T18:14:22.907Z,15.17
2019-04-01T18:18:29.855Z,15.19
2019-04-01T18:22:36.620Z,14.95
2019-04-01T18:26:45.951Z,14.91
2019-04-01T18:30:53.036Z,14.76
2019-04-01T18:34:59.754Z,14.51
2019-04-01T18:39:09.299Z,14.41
2019-04-01T18:43:16.005Z,14.36
2019-04-01T18:47:22.795Z,14.20
2019-04-01T18:51:30.545Z,13.96
2019-04-01T18:55:37.310Z,13.94
2019-04-01T18:59:44.228Z,13.82
2019-04-01T19:03:51.048Z,13.78
2019-04-01T19:07:57.751Z,13.60
2019-04-01T19:12:04.855Z,13.54
2019-04-01T19:16:16.211Z,13.40
2019-04-01T19:20:21.178Z,13.37
2019-04-01T19:24:28.414Z,13.21
2019-04-01T19:28:35.382Z,13.15
2019-04-01T19:32:44.608Z,13.11
2019-04-01T19:36:51.710Z,12.92
2019-04-01T19:40:59.919Z,12.91
2019-04-01T19:45:07.854Z,12.85
2019-04-01T19:49:15.325Z,12.73
2019-04-01T19:53:24.169Z,12.85
2019-04-01T19:57:35.728Z,12.77
2019-04-01T20:01:42.255Z,12.69
2019-04-01T20:05:49.939Z,12.73
2019-04-01T20:09:57.110Z,12.57
2019-04-01T20:14:04.330Z,12.56
2019-04-01T20:18:11.321Z,12.43
2019-04-01T20:22:18.132Z,12.41
2019-04-01T20:26:24.941Z,12.36
2019-04-01T20:30:31.735Z,12.30
2019-04-01T20:34:38.514Z,12.21
2019-04-01T20:38:45.217Z,12.13
2019-04-01T20:42:51.917Z,12.04
2019-04-01T20:46:58.665Z,11.97
2019-04-01T20:51:05.532Z,11.94
2019-04-01T20:55:13.498Z,11.89
2019-04-01T20:59:20.833Z,11.91
2019-04-01T21:03:27.628Z,11.86
2019-04-01T21:07:34.471Z,11.82
2019-04-01T21:11:41.171Z,11.82
2019-04-01T21:15:48.537Z,11.74
2019-04-01T21:19:55.389Z,11.70
2019-04-01T21:24:02.243Z,11.63
2019-04-01T21:28:11.959Z,11.57
2019-04-01T21:32:21.688Z,11.45
2019-04-01T21:36:28.419Z,11.52
2019-04-01T21:40:35.368Z,11.49
2019-04-01T21:44:42.146Z,11.40
2019-04-01T21:48:48.876Z,11.43
2019-04-01T21:52:55.664Z,11.41
2019-04-01T21:57:02.600Z,11.29
2019-04-01T22:01:09.582Z,11.24
2019-04-01T22:05:16.583Z,11.18
2019-04-01T22:09:23.415Z,11.21
2019-04-01T22:13:30.204Z,11.19
2019-04-01T22:17:36.930Z,11.15
2019-04-01T22:21:43.685Z,11.07
2019-04-01T22:25:50.440Z,11.07
2019-04-01T22:29:57.366Z,11.05
2019-04-01T22:34:04.077Z,10.97
2019-04-01T22:38:10.825Z,10.97
2019-04-01T22:42:17.815Z,10.89
2019-04-01T22:46:24.542Z,10.78
2019-04-01T22:50:31.285Z,10.58
2019-04-01T22:54:38.186Z,10.55
2019-04-01T22:58:44.875Z,10.51
2019-04-01T23:02:51.606Z,10.37
2019-04-01T23:06:58.383Z,10.33
2019-04-01T23:11:05.158Z,10.34
2019-04-01T23:15:12.192Z,10.22
2019-04-01T23:19:18.913Z,10.11
2019-04-01T23:23:25.604Z,10.01
2019-04-01T23:27:36.158Z,9.86
2019-04-01T23:31:42.977Z,9.85
2019-04-01T23:35:49.802Z,9.72
2019-04-01T23:39:56.513Z,9.70
2019-04-01T23:44:03.278Z,9.66
2019-04-01T23:48:11.471Z,9.57
2019-04-01T23:52:18.155Z,9.44
2019-04-01T23:56:24.880Z,9.42
